sensor_id;sensor_type;location;lat;lon;timestamp;pressure;altitude;pressure_sealevel;temperature;humidity
69630;BME280;56857;52.212;5.496;2024-03-23T00:53:01;101164.84;;;7.85;100.00
69630;BME280;56857;52.212;5.496;2024-03-23T00:55:27;101161.38;;;7.85;100.00
69630;BME280;56857;52.212;5.496;2024-03-23T00:57:52;101150.13;;;7.83;100.00
69630;BME280;56857;52.212;5.496;2024-03-23T01:00:17;101143.31;;;7.80;100.00
69630;BME280;56857;52.212;5.496;2024-03-23T01:02:43;101134.03;;;7.76;100.00
69630;BME280;56857;52.212;5.496;2024-03-23T01:05:08;101129.03;;;7.73;100.00
69630;BME280;56857;52.212;5.496;2024-03-23T01:07:33;101137.22;;;7.70;100.00
69630;BME280;56857;52.212;5.496;2024-03-23T01:09:59;101133.22;;;7.66;100.00
69630;BME280;56857;52.212;5.496;2024-03-23T01:12:24;101135.00;;;7.65;100.00
69630;BME280;56857;52.212;5.496;2024-03-23T01:14:49;101129.06;;;7.63;100.00
69630;BME280;56857;52.212;5.496;2024-03-23T01:17:15;101134.34;;;7.63;100.00
69630;BME280;56857;52.212;5.496;2024-03-23T01:19:40;101130.16;;;7.61;100.00
69630;BME280;56857;52.212;5.496;2024-03-23T01:22:05;101128.66;;;7.58;100.00
69630;BME280;56857;52.212;5.496;2024-03-23T01:24:31;101123.53;;;7.57;100.00
69630;BME280;56857;52.212;5.496;2024-03-23T01:26:56;101120.19;;;7.55;100.00
69630;BME280;56857;52.212;5.496;2024-03-23T01:29:21;101116.03;;;7.52;100.00
69630;BME280;56857;52.212;5.496;2024-03-23T01:31:46;101109.22;;;7.50;100.00
69630;BME280;56857;52.212;5.496;2024-03-23T01:34:12;101105.75;;;7.49;100.00
69630;BME280;56857;52.212;5.496;2024-03-23T01:36:37;101106.59;;;7.50;100.00
69630;BME280;56857;52.212;5.496;2024-03-23T01:39:02;101108.56;;;7.48;100.00
69630;BME280;56857;52.212;5.496;2024-03-23T01:41:28;101091.31;;;7.43;100.00
69630;BME280;56857;52.212;5.496;2024-03-23T01:43:55;101096.75;;;7.42;100.00
69630;BME280;56857;52.212;5.496;2024-03-23T01:46:20;101088.97;;;7.40;100.00
69630;BME280;56857;52.212;5.496;2024-03-23T01:48:45;101083.84;;;7.39;100.00
69630;BME280;56857;52.212;5.496;2024-03-23T01:51:11;101090.25;;;7.36;100.00
69630;BME280;56857;52.212;5.496;2024-03-23T01:53:37;101081.78;;;7.33;100.00
69630;BME280;56857;52.212;5.496;2024-03-23T01:56:02;101075.97;;;7.29;100.00
69630;BME280;56857;52.212;5.496;2024-03-23T01:58:28;101075.97;;;7.29;100.00
69630;BME280;56857;52.212;5.496;2024-03-23T02:00:54;101070.81;;;7.28;100.00
69630;BME280;56857;52.212;5.496;2024-03-23T02:03:26;101068.47;;;7.25;100.00
69630;BME280;56857;52.212;5.496;2024-03-23T02:05:53;101069.44;;;7.24;100.00
69630;BME280;56857;52.212;5.496;2024-03-23T02:08:20;101061.81;;;7.20;100.00
69630;BME280;56857;52.212;5.496;2024-03-23T02:10:45;101062.94;;;7.18;100.00
69630;BME280;56857;52.212;5.496;2024-03-23T02:13:11;101068.38;;;7.16;100.00
69630;BME280;56857;52.212;5.496;2024-03-23T02:15:38;101066.56;;;7.17;100.00
69630;BME280;56857;52.212;5.496;2024-03-23T02:18:04;101065.44;;;7.19;100.00
69630;BME280;56857;52.212;5.496;2024-03-23T02:20:29;101070.84;;;7.18;100.00
69630;BME280;56857;52.212;5.496;2024-03-23T02:22:54;101072.66;;;7.17;100.00
69630;BME280;56857;52.212;5.496;2024-03-23T02:25:19;101064.03;;;7.15;100.00
69630;BME280;56857;52.212;5.496;2024-03-23T02:27:45;101063.38;;;7.13;100.00
69630;BME280;56857;52.212;5.496;2024-03-23T02:30:10;101063.50;;;7.12;100.00
69630;BME280;56857;52.212;5.496;2024-03-23T02:32:35;101057.56;;;7.10;100.00
69630;BME280;56857;52.212;5.496;2024-03-23T02:35:01;101054.91;;;7.10;100.00
69630;BME280;56857;52.212;5.496;2024-03-23T02:37:26;101055.03;;;7.08;100.00
69630;BME280;56857;52.212;5.496;2024-03-23T02:39:51;101051.75;;;7.06;100.00
69630;BME280;56857;52.212;5.496;2024-03-23T02:42:17;101046.59;;;7.05;100.00
69630;BME280;56857;52.212;5.496;2024-03-23T02:44:42;101054.50;;;7.05;100.00
69630;BME280;56857;52.212;5.496;2024-03-23T02:47:07;101048.69;;;7.01;100.00
69630;BME280;56857;52.212;5.496;2024-03-23T02:49:32;101051.44;;;7.00;100.00
69630;BME280;56857;52.212;5.496;2024-03-23T02:51:58;101047.44;;;6.95;100.00
69630;BME280;56857;52.212;5.496;2024-03-23T02:54:23;101037.88;;;6.94;100.00
69630;BME280;56857;52.212;5.496;2024-03-23T02:56:48;101048.41;;;6.94;100.00
69630;BME280;56857;52.212;5.496;2024-03-23T02:59:14;101045.06;;;6.92;100.00
69630;BME280;56857;52.212;5.496;2024-03-23T03:01:39;101049.53;;;6.92;100.00
69630;BME280;56857;52.212;5.496;2024-03-23T03:04:04;101048.41;;;6.94;100.00
69630;BME280;56857;52.212;5.496;2024-03-23T03:06:30;101045.06;;;6.92;100.00
69630;BME280;56857;52.212;5.496;2024-03-23T03:08:56;101038.00;;;6.93;100.00
69630;BME280;56857;52.212;5.496;2024-03-23T03:11:21;101045.34;;;6.89;100.00
69630;BME280;56857;52.212;5.496;2024-03-23T03:13:46;101045.63;;;6.86;100.00
69630;BME280;56857;52.212;5.496;2024-03-23T03:16:12;101034.44;;;6.84;100.00
69630;BME280;56857;52.212;5.496;2024-03-23T03:18:37;101043.28;;;6.83;100.00
69630;BME280;56857;52.212;5.496;2024-03-23T03:21:06;101037.19;;;6.83;100.00
69630;BME280;56857;52.212;5.496;2024-03-23T03:23:32;101037.19;;;6.83;100.00
69630;BME280;56857;52.212;5.496;2024-03-23T03:25:57;101042.72;;;6.80;100.00
69630;BME280;56857;52.212;5.496;2024-03-23T03:28:22;101042.59;;;6.81;100.00
69630;BME280;56857;52.212;5.496;2024-03-23T03:30:48;101040.09;;;6.80;100.00
69630;BME280;56857;52.212;5.496;2024-03-23T03:33:13;101040.25;;;6.78;100.00
69630;BME280;56857;52.212;5.496;2024-03-23T03:35:38;101035.09;;;6.77;100.00
69630;BME280;56857;52.212;5.496;2024-03-23T03:38:04;101031.78;;;6.74;100.00
69630;BME280;56857;52.212;5.496;2024-03-23T03:40:30;101019.47;;;6.75;100.00
69630;BME280;56857;52.212;5.496;2024-03-23T03:42:55;101029.28;;;6.73;100.00
69630;BME280;56857;52.212;5.496;2024-03-23T03:45:20;101027.63;;;6.72;100.00
69630;BME280;56857;52.212;5.496;2024-03-23T03:47:45;101025.41;;;6.67;100.00
69630;BME280;56857;52.212;5.496;2024-03-23T03:50:11;101020.56;;;6.63;100.00
69630;BME280;56857;52.212;5.496;2024-03-23T03:52:36;101018.34;;;6.58;100.00
69630;BME280;56857;52.212;5.496;2024-03-23T03:55:02;101016.81;;;6.56;100.00
69630;BME280;56857;52.212;5.496;2024-03-23T03:57:28;101011.69;;;6.54;100.00
69630;BME280;56857;52.212;5.496;2024-03-23T03:59:53;101011.13;;;6.50;100.00
69630;BME280;56857;52.212;5.496;2024-03-23T04:02:19;101008.78;;;6.47;100.00
69630;BME280;56857;52.212;5.496;2024-03-23T04:04:44;101008.09;;;6.45;100.00
69630;BME280;56857;52.212;5.496;2024-03-23T04:07:09;101009.88;;;6.45;100.00
69630;BME280;56857;52.212;5.496;2024-03-23T04:09:36;101000.59;;;6.41;100.00
69630;BME280;56857;52.212;5.496;2024-03-23T04:12:01;101002.69;;;6.37;100.00
69630;BME280;56857;52.212;5.496;2024-03-23T04:14:26;101006.44;;;6.35;100.00
69630;BME280;56857;52.212;5.496;2024-03-23T04:16:52;101004.06;;;6.32;100.00
69630;BME280;56857;52.212;5.496;2024-03-23T04:19:17;101000.72;;;6.30;100.00
69630;BME280;56857;52.212;5.496;2024-03-23T04:21:42;100998.38;;;6.26;100.00
69630;BME280;56857;52.212;5.496;2024-03-23T04:24:08;101002.09;;;6.24;100.00
69630;BME280;56857;52.212;5.496;2024-03-23T04:26:43;100999.75;;;6.21;100.00
69630;BME280;56857;52.212;5.496;2024-03-23T04:29:08;101002.53;;;6.19;100.00
69630;BME280;56857;52.212;5.496;2024-03-23T04:31:33;100992.69;;;6.21;100.00
69630;BME280;56857;52.212;5.496;2024-03-23T04:33:58;100990.75;;;6.23;100.00
69630;BME280;56857;52.212;5.496;2024-03-23T04:36:24;100993.25;;;6.25;100.00
69630;BME280;56857;52.212;5.496;2024-03-23T04:38:49;100989.78;;;6.24;100.00
69630;BME280;56857;52.212;5.496;2024-03-23T04:41:14;100984.38;;;6.26;100.00
69630;BME280;56857;52.212;5.496;2024-03-23T04:43:40;100993.09;;;6.26;100.00
69630;BME280;56857;52.212;5.496;2024-03-23T04:46:05;100996.00;;;6.23;100.00
69630;BME280;56857;52.212;5.496;2024-03-23T04:48:30;100996.00;;;6.23;100.00
69630;BME280;56857;52.212;5.496;2024-03-23T04:50:57;100994.63;;;6.19;100.00
69630;BME280;56857;52.212;5.496;2024-03-23T04:53:23;101000.03;;;6.18;100.00
69630;BME280;56857;52.212;5.496;2024-03-23T04:55:49;100996.00;;;6.14;100.00
69630;BME280;56857;52.212;5.496;2024-03-23T04:58:14;100987.44;;;6.12;100.00
69630;BME280;56857;52.212;5.496;2024-03-23T05:00:39;100992.81;;;6.10;100.00
69630;BME280;56857;52.212;5.496;2024-03-23T05:03:04;100988.81;;;6.06;100.00
69630;BME280;56857;52.212;5.496;2024-03-23T05:05:30;100984.75;;;6.02;100.00
69630;BME280;56857;52.212;5.496;2024-03-23T05:07:55;100989.34;;;6.00;100.00
69630;BME280;56857;52.212;5.496;2024-03-23T05:10:21;100996.53;;;5.98;100.00
69630;BME280;56857;52.212;5.496;2024-03-23T05:12:46;100991.69;;;5.93;100.00
69630;BME280;56857;52.212;5.496;2024-03-23T05:15:11;100987.34;;;5.92;100.00
69630;BME280;56857;52.212;5.496;2024-03-23T05:17:38;100993.59;;;5.91;100.00
69630;BME280;56857;52.212;5.496;2024-03-23T05:20:04;100988.47;;;5.90;100.00
69630;BME280;56857;52.212;5.496;2024-03-23T05:22:29;100986.78;;;5.89;100.00
69630;BME280;56857;52.212;5.496;2024-03-23T05:24:54;100993.84;;;5.88;100.00
69630;BME280;56857;52.212;5.496;2024-03-23T05:27:20;100992.03;;;5.89;100.00
69630;BME280;56857;52.212;5.496;2024-03-23T05:29:45;100993.03;;;5.88;100.00
69630;BME280;56857;52.212;5.496;2024-03-23T05:32:10;100992.19;;;5.87;100.00
69630;BME280;56857;52.212;5.496;2024-03-23T05:34:36;100992.19;;;5.87;100.00
69630;BME280;56857;52.212;5.496;2024-03-23T05:37:01;100991.22;;;5.88;100.00
69630;BME280;56857;52.212;5.496;2024-03-23T05:39:26;100993.84;;;5.88;100.00
69630;BME280;56857;52.212;5.496;2024-03-23T05:41:51;100988.47;;;5.90;100.00
69630;BME280;56857;52.212;5.496;2024-03-23T05:44:17;100982.22;;;5.91;100.00
69630;BME280;56857;52.212;5.496;2024-03-23T05:46:42;100982.22;;;5.91;100.00
69630;BME280;56857;52.212;5.496;2024-03-23T05:49:08;100993.50;;;5.93;100.00
69630;BME280;56857;52.212;5.496;2024-03-23T05:51:33;100988.22;;;5.93;100.00
69630;BME280;56857;52.212;5.496;2024-03-23T05:53:58;100988.09;;;5.94;100.00
69630;BME280;56857;52.212;5.496;2024-03-23T05:56:24;100981.03;;;5.95;100.00
69630;BME280;56857;52.212;5.496;2024-03-23T05:58:49;100978.13;;;5.98;100.00
69630;BME280;56857;52.212;5.496;2024-03-23T06:01:15;100976.19;;;6.00;100.00
69630;BME280;56857;52.212;5.496;2024-03-23T06:03:40;100978.56;;;6.03;100.00
69630;BME280;56857;52.212;5.496;2024-03-23T06:06:05;100983.53;;;6.06;100.00
69630;BME280;56857;52.212;5.496;2024-03-23T06:08:30;100984.38;;;6.07;100.00
69630;BME280;56857;52.212;5.496;2024-03-23T06:10:56;100989.47;;;6.08;100.00
69630;BME280;56857;52.212;5.496;2024-03-23T06:13:21;100984.22;;;6.08;100.00
69630;BME280;56857;52.212;5.496;2024-03-23T06:15:46;100991.28;;;6.08;100.00
69630;BME280;56857;52.212;5.496;2024-03-23T06:18:12;100984.09;;;6.10;100.00
69630;BME280;56857;52.212;5.496;2024-03-23T06:20:37;100988.66;;;6.08;100.00
69630;BME280;56857;52.212;5.496;2024-03-23T06:23:03;100989.47;;;6.08;100.00
69630;BME280;56857;52.212;5.496;2024-03-23T06:25:28;100984.09;;;6.10;100.00
69630;BME280;56857;52.212;5.496;2024-03-23T06:27:53;100984.91;;;6.10;100.00
69630;BME280;56857;52.212;5.496;2024-03-23T06:30:19;100982.28;;;6.10;100.00
69630;BME280;56857;52.212;5.496;2024-03-23T06:32:44;100979.53;;;6.12;100.00
69630;BME280;56857;52.212;5.496;2024-03-23T06:35:09;100977.72;;;6.12;100.00
69630;BME280;56857;52.212;5.496;2024-03-23T06:37:37;100965.25;;;6.14;100.00
69630;BME280;56857;52.212;5.496;2024-03-23T06:40:03;100971.22;;;6.16;100.00
69630;BME280;56857;52.212;5.496;2024-03-23T06:42:28;100972.03;;;6.17;100.00
69630;BME280;56857;52.212;5.496;2024-03-23T06:44:53;100973.41;;;6.21;100.00
69630;BME280;56857;52.212;5.496;2024-03-23T06:47:19;100971.50;;;6.23;100.00
69630;BME280;56857;52.212;5.496;2024-03-23T06:49:44;100961.78;;;6.23;100.00
69630;BME280;56857;52.212;5.496;2024-03-23T06:52:09;100967.75;;;6.25;100.00
69630;BME280;56857;52.212;5.496;2024-03-23T06:54:35;100968.47;;;6.28;100.00
69630;BME280;56857;52.212;5.496;2024-03-23T06:57:00;100975.09;;;6.32;100.00
69630;BME280;56857;52.212;5.496;2024-03-23T06:59:25;100968.75;;;6.34;100.00
69630;BME280;56857;52.212;5.496;2024-03-23T07:01:51;100969.28;;;6.38;100.00
69630;BME280;56857;52.212;5.496;2024-03-23T07:04:16;100981.47;;;6.39;100.00
69630;BME280;56857;52.212;5.496;2024-03-23T07:06:45;100974.13;;;6.42;100.00
69630;BME280;56857;52.212;5.496;2024-03-23T07:09:10;100980.91;;;6.45;100.00
69630;BME280;56857;52.212;5.496;2024-03-23T07:11:36;100978.84;;;6.48;100.00
69630;BME280;56857;52.212;5.496;2024-03-23T07:14:01;100971.63;;;6.50;100.00
69630;BME280;56857;52.212;5.496;2024-03-23T07:16:27;100971.47;;;6.52;100.00
69630;BME280;56857;52.212;5.496;2024-03-23T07:18:52;100974.00;;;6.54;100.00
69630;BME280;56857;52.212;5.496;2024-03-23T07:21:17;100971.19;;;6.55;100.00
69630;BME280;56857;52.212;5.496;2024-03-23T07:23:43;100971.91;;;6.57;100.00
69630;BME280;56857;52.212;5.496;2024-03-23T07:26:08;100973.28;;;6.61;100.00
69630;BME280;56857;52.212;5.496;2024-03-23T07:28:33;100974.97;;;6.62;100.00
69630;BME280;56857;52.212;5.496;2024-03-23T07:31:03;100969.25;;;6.67;100.00
69630;BME280;56857;52.212;5.496;2024-03-23T07:33:28;100972.69;;;6.77;100.00
69630;BME280;56857;52.212;5.496;2024-03-23T07:35:54;100972.56;;;6.88;100.00
69630;BME280;56857;52.212;5.496;2024-03-23T07:38:19;100973.91;;;7.02;100.00
69630;BME280;56857;52.212;5.496;2024-03-23T07:40:45;100980.13;;;7.11;100.00
69630;BME280;56857;52.212;5.496;2024-03-23T07:43:10;100967.06;;;7.19;100.00
69630;BME280;56857;52.212;5.496;2024-03-23T07:45:35;100976.06;;;7.26;100.00
69630;BME280;56857;52.212;5.496;2024-03-23T07:48:02;100964.22;;;7.30;100.00
69630;BME280;56857;52.212;5.496;2024-03-23T07:50:27;100979.47;;;7.36;100.00
69630;BME280;56857;52.212;5.496;2024-03-23T07:52:53;100967.06;;;7.47;100.00
69630;BME280;56857;52.212;5.496;2024-03-23T07:55:18;100970.94;;;7.52;100.00
69630;BME280;56857;52.212;5.496;2024-03-23T07:57:43;100975.22;;;7.53;100.00
69630;BME280;56857;52.212;5.496;2024-03-23T08:00:09;100974.66;;;7.59;100.00
69630;BME280;56857;52.212;5.496;2024-03-23T08:02:35;100958.94;;;7.68;100.00
69630;BME280;56857;52.212;5.496;2024-03-23T08:05:00;100964.44;;;7.74;100.00
69630;BME280;56857;52.212;5.496;2024-03-23T08:07:25;100967.25;;;7.90;100.00
69630;BME280;56857;52.212;5.496;2024-03-23T08:09:50;100960.94;;;8.01;100.00
69630;BME280;56857;52.212;5.496;2024-03-23T08:12:16;100965.84;;;8.14;100.00
69630;BME280;56857;52.212;5.496;2024-03-23T08:14:41;100962.47;;;8.40;100.00
69630;BME280;56857;52.212;5.496;2024-03-23T08:17:06;100972.34;;;8.73;100.00
69630;BME280;56857;52.212;5.496;2024-03-23T08:19:32;100968.75;;;9.09;100.00
69630;BME280;56857;52.212;5.496;2024-03-23T08:21:57;100949.19;;;9.27;100.00
69630;BME280;56857;52.212;5.496;2024-03-23T08:24:22;100964.31;;;9.43;100.00
69630;BME280;56857;52.212;5.496;2024-03-23T08:26:48;100957.75;;;9.56;100.00
69630;BME280;56857;52.212;5.496;2024-03-23T08:29:13;100960.94;;;9.75;100.00
69630;BME280;56857;52.212;5.496;2024-03-23T08:31:38;100960.34;;;9.90;100.00
69630;BME280;56857;52.212;5.496;2024-03-23T08:34:03;100959.16;;;9.92;100.00
69630;BME280;56857;52.212;5.496;2024-03-23T08:36:29;100955.03;;;9.90;100.00
69630;BME280;56857;52.212;5.496;2024-03-23T08:38:54;100955.69;;;9.84;100.00
69630;BME280;56857;52.212;5.496;2024-03-23T08:41:19;100950.06;;;9.95;100.00
69630;BME280;56857;52.212;5.496;2024-03-23T08:43:44;100949.06;;;9.88;100.00
69630;BME280;56857;52.212;5.496;2024-03-23T08:46:11;100955.97;;;9.72;100.00
69630;BME280;56857;52.212;5.496;2024-03-23T08:51:07;100943.41;;;9.74;100.00
69630;BME280;56857;52.212;5.496;2024-03-23T08:53:34;100950.72;;;9.89;100.00
69630;BME280;56857;52.212;5.496;2024-03-23T08:56:01;100940.69;;;10.25;100.00
69630;BME280;56857;52.212;5.496;2024-03-23T08:58:27;100951.16;;;10.59;100.00
69630;BME280;56857;52.212;5.496;2024-03-23T09:00:54;100937.19;;;10.90;100.00
69630;BME280;56857;52.212;5.496;2024-03-23T09:03:20;100947.59;;;11.08;100.00
69630;BME280;56857;52.212;5.496;2024-03-23T09:05:45;100937.16;;;10.98;100.00
69630;BME280;56857;52.212;5.496;2024-03-23T09:08:11;100929.94;;;10.67;100.00
69630;BME280;56857;52.212;5.496;2024-03-23T09:10:40;100934.72;;;10.56;100.00
69630;BME280;56857;52.212;5.496;2024-03-23T09:13:06;100947.00;;;10.57;100.00
69630;BME280;56857;52.212;5.496;2024-03-23T09:15:36;100935.06;;;10.36;100.00
69630;BME280;56857;52.212;5.496;2024-03-23T09:18:02;100931.06;;;10.24;100.00
69630;BME280;56857;52.212;5.496;2024-03-23T09:20:28;100936.88;;;10.19;100.00
69630;BME280;56857;52.212;5.496;2024-03-23T09:22:53;100925.75;;;10.24;100.00
69630;BME280;56857;52.212;5.496;2024-03-23T09:25:18;100934.19;;;10.93;100.00
69630;BME280;56857;52.212;5.496;2024-03-23T09:27:47;100921.53;;;11.82;100.00
69630;BME280;56857;52.212;5.496;2024-03-23T09:30:12;100915.41;;;12.50;100.00
69630;BME280;56857;52.212;5.496;2024-03-23T09:32:38;100917.03;;;13.04;100.00
69630;BME280;56857;52.212;5.496;2024-03-23T09:35:04;100919.34;;;13.37;100.00
69630;BME280;56857;52.212;5.496;2024-03-23T09:37:29;100923.34;;;13.62;100.00
69630;BME280;56857;52.212;5.496;2024-03-23T09:39:54;100912.69;;;13.62;100.00
69630;BME280;56857;52.212;5.496;2024-03-23T09:42:19;100910.50;;;13.51;100.00
69630;BME280;56857;52.212;5.496;2024-03-23T09:44:45;100906.19;;;13.50;100.00
69630;BME280;56857;52.212;5.496;2024-03-23T09:47:11;100908.66;;;13.52;100.00
69630;BME280;56857;52.212;5.496;2024-03-23T09:49:37;100908.03;;;13.50;100.00
69630;BME280;56857;52.212;5.496;2024-03-23T09:52:03;100906.75;;;13.16;100.00
69630;BME280;56857;52.212;5.496;2024-03-23T09:54:28;100899.94;;;12.69;100.00
69630;BME280;56857;52.212;5.496;2024-03-23T09:56:54;100907.59;;;12.34;100.00
69630;BME280;56857;52.212;5.496;2024-03-23T09:59:19;100905.06;;;11.95;100.00
69630;BME280;56857;52.212;5.496;2024-03-23T10:01:44;100901.66;;;11.78;100.00
69630;BME280;56857;52.212;5.496;2024-03-23T10:04:10;100915.13;;;11.76;100.00
69630;BME280;56857;52.212;5.496;2024-03-23T10:06:35;100913.06;;;11.55;100.00
69630;BME280;56857;52.212;5.496;2024-03-23T10:09:01;100921.69;;;11.18;100.00
69630;BME280;56857;52.212;5.496;2024-03-23T10:11:26;100927.72;;;10.87;100.00
69630;BME280;56857;52.212;5.496;2024-03-23T10:13:51;100916.34;;;10.54;100.00
69630;BME280;56857;52.212;5.496;2024-03-23T10:16:21;100917.19;;;10.30;100.00
69630;BME280;56857;52.212;5.496;2024-03-23T10:18:47;100919.50;;;10.25;100.00
69630;BME280;56857;52.212;5.496;2024-03-23T10:21:14;100921.63;;;10.13;100.00
69630;BME280;56857;52.212;5.496;2024-03-23T10:23:41;100922.59;;;9.96;100.00
69630;BME280;56857;52.212;5.496;2024-03-23T10:26:25;100911.66;;;9.99;100.00
69630;BME280;56857;52.212;5.496;2024-03-23T10:29:11;100915.97;;;10.08;100.00
69630;BME280;56857;52.212;5.496;2024-03-23T10:31:36;100916.84;;;10.09;100.00
69630;BME280;56857;52.212;5.496;2024-03-23T10:34:03;100920.66;;;10.23;100.00
69630;BME280;56857;52.212;5.496;2024-03-23T10:36:29;100921.34;;;10.33;100.00
69630;BME280;56857;52.212;5.496;2024-03-23T10:38:54;100920.50;;;10.49;100.00
69630;BME280;56857;52.212;5.496;2024-03-23T10:41:20;100920.66;;;10.55;100.00
69630;BME280;56857;52.212;5.496;2024-03-23T10:43:47;100905.28;;;10.51;100.00
69630;BME280;56857;52.212;5.496;2024-03-23T10:46:12;100911.72;;;10.40;100.00
69630;BME280;56857;52.212;5.496;2024-03-23T10:48:38;100908.59;;;10.28;100.00
69630;BME280;56857;52.212;5.496;2024-03-23T10:51:06;100912.38;;;10.34;100.00
69630;BME280;56857;52.212;5.496;2024-03-23T10:53:33;100906.75;;;10.53;100.00
69630;BME280;56857;52.212;5.496;2024-03-23T10:55:59;100910.69;;;10.82;100.00
69630;BME280;56857;52.212;5.496;2024-03-23T10:58:28;100898.53;;;11.04;100.00
69630;BME280;56857;52.212;5.496;2024-03-23T11:00:55;100903.44;;;11.15;100.00
69630;BME280;56857;52.212;5.496;2024-03-23T11:03:37;100908.47;;;11.10;100.00
69630;BME280;56857;52.212;5.496;2024-03-23T11:06:04;100919.63;;;10.89;100.00
69630;BME280;56857;52.212;5.496;2024-03-23T11:08:34;100911.38;;;10.76;100.00
69630;BME280;56857;52.212;5.496;2024-03-23T11:11:20;100907.50;;;10.86;100.00
69630;BME280;56857;52.212;5.496;2024-03-23T11:13:49;100908.97;;;11.05;100.00
69630;BME280;56857;52.212;5.496;2024-03-23T11:16:25;100906.09;;;11.23;100.00
69630;BME280;56857;52.212;5.496;2024-03-23T11:18:51;100900.63;;;11.17;100.00
69630;BME280;56857;52.212;5.496;2024-03-23T11:21:51;100898.53;;;10.96;100.00
69630;BME280;56857;52.212;5.496;2024-03-23T11:24:17;100898.25;;;10.82;100.00
69630;BME280;56857;52.212;5.496;2024-03-23T11:26:42;100896.09;;;10.78;100.00
69630;BME280;56857;52.212;5.496;2024-03-23T11:29:15;100885.81;;;10.91;100.00
69630;BME280;56857;52.212;5.496;2024-03-23T11:31:51;100898.34;;;11.05;100.00
69630;BME280;56857;52.212;5.496;2024-03-23T11:34:17;100899.34;;;11.04;100.00
69630;BME280;56857;52.212;5.496;2024-03-23T11:36:43;100899.22;;;10.98;100.00
69630;BME280;56857;52.212;5.496;2024-03-23T11:39:19;100894.88;;;11.05;100.00
69630;BME280;56857;52.212;5.496;2024-03-23T11:41:51;100890.66;;;11.19;100.00
69630;BME280;56857;52.212;5.496;2024-03-23T11:44:21;100901.72;;;11.30;100.00
69630;BME280;56857;52.212;5.496;2024-03-23T11:46:47;100881.44;;;11.46;100.00
69630;BME280;56857;52.212;5.496;2024-03-23T11:49:26;100884.69;;;11.56;100.00
69630;BME280;56857;52.212;5.496;2024-03-23T11:51:53;100884.00;;;11.62;100.00
69630;BME280;56857;52.212;5.496;2024-03-23T11:54:26;100876.84;;;11.63;100.00
69630;BME280;56857;52.212;5.496;2024-03-23T11:57:00;100883.94;;;11.70;100.00
69630;BME280;56857;52.212;5.496;2024-03-23T11:59:39;100882.47;;;11.68;100.00
69630;BME280;56857;52.212;5.496;2024-03-23T12:02:11;100882.13;;;11.71;100.00
69630;BME280;56857;52.212;5.496;2024-03-23T12:04:38;100872.59;;;11.85;100.00
69630;BME280;56857;52.212;5.496;2024-03-23T12:07:29;100875.25;;;11.85;100.00
69630;BME280;56857;52.212;5.496;2024-03-23T12:10:04;100870.94;;;11.75;100.00
69630;BME280;56857;52.212;5.496;2024-03-23T12:12:29;100878.19;;;11.58;100.00
69630;BME280;56857;52.212;5.496;2024-03-23T12:15:07;100881.44;;;11.46;100.00
69630;BME280;56857;52.212;5.496;2024-03-23T12:17:32;100870.34;;;11.42;100.00
69630;BME280;56857;52.212;5.496;2024-03-23T12:19:58;100869.44;;;11.50;100.00
69630;BME280;56857;52.212;5.496;2024-03-23T12:22:24;100866.91;;;11.56;100.00
69630;BME280;56857;52.212;5.496;2024-03-23T12:24:50;100844.75;;;11.72;100.00
69630;BME280;56857;52.212;5.496;2024-03-23T12:27:16;100847.16;;;11.82;100.00
69630;BME280;56857;52.212;5.496;2024-03-23T12:29:41;100857.31;;;11.78;100.00
69630;BME280;56857;52.212;5.496;2024-03-23T12:32:07;100840.72;;;11.85;100.00
69630;BME280;56857;52.212;5.496;2024-03-23T12:34:32;100849.03;;;12.04;100.00
69630;BME280;56857;52.212;5.496;2024-03-23T12:36:58;100833.56;;;12.23;100.00
69630;BME280;56857;52.212;5.496;2024-03-23T12:39:23;100843.97;;;12.33;100.00
69630;BME280;56857;52.212;5.496;2024-03-23T12:41:51;100855.34;;;12.26;100.00
69630;BME280;56857;52.212;5.496;2024-03-23T12:44:16;100849.97;;;12.12;100.00
69630;BME280;56857;52.212;5.496;2024-03-23T12:46:42;100853.22;;;11.99;100.00
69630;BME280;56857;52.212;5.496;2024-03-23T12:49:07;100850.16;;;11.87;100.00
69630;BME280;56857;52.212;5.496;2024-03-23T12:51:33;100852.81;;;11.79;100.00
69630;BME280;56857;52.212;5.496;2024-03-23T12:53:59;100842.75;;;11.74;100.00
69630;BME280;56857;52.212;5.496;2024-03-23T12:56:24;100842.59;;;11.76;100.00
69630;BME280;56857;52.212;5.496;2024-03-23T12:58:49;100848.19;;;11.81;100.00
69630;BME280;56857;52.212;5.496;2024-03-23T13:01:14;100846.06;;;11.76;100.00
69630;BME280;56857;52.212;5.496;2024-03-23T13:03:40;100850.16;;;11.56;100.00
69630;BME280;56857;52.212;5.496;2024-03-23T13:06:05;100844.97;;;11.40;100.00
69630;BME280;56857;52.212;5.496;2024-03-23T13:08:30;100855.13;;;11.28;100.00
69630;BME280;56857;52.212;5.496;2024-03-23T13:10:55;100850.00;;;11.26;100.00
69630;BME280;56857;52.212;5.496;2024-03-23T13:13:21;100848.31;;;11.33;100.00
69630;BME280;56857;52.212;5.496;2024-03-23T13:15:52;100853.81;;;11.32;100.00
69630;BME280;56857;52.212;5.496;2024-03-23T13:18:17;100854.00;;;11.22;100.00
69630;BME280;56857;52.212;5.496;2024-03-23T13:20:43;100857.72;;;11.05;100.00
69630;BME280;56857;52.212;5.496;2024-03-23T13:23:08;100854.47;;;10.86;100.00
69630;BME280;56857;52.212;5.496;2024-03-23T13:25:33;100854.88;;;10.75;100.00
69630;BME280;56857;52.212;5.496;2024-03-23T13:27:58;100851.41;;;10.58;100.00
69630;BME280;56857;52.212;5.496;2024-03-23T13:30:24;100842.63;;;10.50;100.00
69630;BME280;56857;52.212;5.496;2024-03-23T13:32:49;100834.53;;;10.43;100.00
69630;BME280;56857;52.212;5.496;2024-03-23T13:35:14;100837.19;;;10.43;100.00